N423DT KCOS-
Flight info
| Callsign | N423DT |
|---|---|
| Flight time | N/A |
| Altitude | VFR |
| Route | /W/ |
| Aircraft | SF50/L-VGDW/C |
Departure
| Time | 2026-04-25 23:02 |
|---|---|
| Airport | City of Colorado Springs Municipal Airport (KCOS) |
Arrival
| Time | N/A |
|---|---|
| Airport | - |
| Time | Latitude | Longitude | Altitude | Speed | Heading |
|---|---|---|---|---|---|
| 2026-04-25 22:51 | 38.82341 | -104.71189 | 6187 ft | 0 kts | 205° |
| 2026-04-25 22:56 | 38.82339 | -104.71190 | 6187 ft | 3 kts | 205° |
| 2026-04-25 22:57 | 38.82303 | -104.71222 | 6187 ft | 11 kts | 224° |
| 2026-04-25 22:57 | 38.82309 | -104.71276 | 6188 ft | 10 kts | 327° |
| 2026-04-25 22:57 | 38.82385 | -104.71374 | 6188 ft | 21 kts | 312° |
| 2026-04-25 22:57 | 38.82398 | -104.71429 | 6188 ft | 4 kts | 266° |
| 2026-04-25 22:58 | 38.82398 | -104.71455 | 6189 ft | 0 kts | 271° |
| 2026-04-25 23:01 | 38.82398 | -104.71469 | 6189 ft | 7 kts | 266° |
| 2026-04-25 23:01 | 38.82368 | -104.71573 | 6190 ft | 19 kts | 214° |
| 2026-04-25 23:02 | 38.82310 | -104.71592 | 6190 ft | 0 kts | 180° |
| 2026-04-25 23:02 | 38.82122 | -104.71591 | 6189 ft | 63 kts | 180° |
| 2026-04-25 23:02 | 38.81511 | -104.71611 | 6381 ft | 101 kts | 184° |
| 2026-04-25 23:02 | 38.80784 | -104.71698 | 6920 ft | 110 kts | 184° |
| 2026-04-25 23:03 | 38.79967 | -104.71691 | 7404 ft | 124 kts | 176° |
| 2026-04-25 23:03 | 38.79026 | -104.71660 | 7892 ft | 148 kts | 179° |
| 2026-04-25 23:03 | 38.77953 | -104.71672 | 8619 ft | 156 kts | 179° |
| 2026-04-25 23:03 | 38.76845 | -104.71643 | 9399 ft | 163 kts | 181° |
| 2026-04-25 23:04 | 38.75678 | -104.71683 | 10075 ft | 176 kts | 187° |
| 2026-04-25 23:04 | 38.74446 | -104.71935 | 10755 ft | 181 kts | 201° |
| 2026-04-25 23:04 | 38.73479 | -104.72828 | 11640 ft | 173 kts | 242° |
| 2026-04-25 23:04 | 38.73186 | -104.74346 | 12383 ft | 177 kts | 260° |
| 2026-04-25 23:05 | 38.73045 | -104.75913 | 13240 ft | 177 kts | 263° |
| 2026-04-25 23:05 | 38.72966 | -104.77474 | 14105 ft | 172 kts | 266° |
| 2026-04-25 23:05 | 38.72961 | -104.79054 | 14537 ft | 190 kts | 268° |
| 2026-04-25 23:05 | 38.73364 | -104.80761 | 14723 ft | 221 kts | 299° |
| 2026-04-25 23:06 | 38.74560 | -104.82258 | 14511 ft | 255 kts | 313° |
| 2026-04-25 23:06 | 38.75872 | -104.83878 | 14489 ft | 266 kts | 309° |
| 2026-04-25 23:06 | 38.76954 | -104.85765 | 14644 ft | 263 kts | 290° |
| 2026-04-25 23:06 | 38.77257 | -104.88005 | 15020 ft | 253 kts | 263° |
| 2026-04-25 23:07 | 38.76575 | -104.90054 | 15299 ft | 252 kts | 235° |
| 2026-04-25 23:07 | 38.75458 | -104.91747 | 15740 ft | 244 kts | 231° |
| 2026-04-25 23:07 | 38.74281 | -104.93368 | 15778 ft | 254 kts | 229° |
| 2026-04-25 23:07 | 38.72978 | -104.94993 | 15458 ft | 271 kts | 224° |
| 2026-04-25 23:08 | 38.71535 | -104.96550 | 15425 ft | 272 kts | 222° |
| 2026-04-25 23:08 | 38.70086 | -104.98078 | 15504 ft | 266 kts | 227° |
| 2026-04-25 23:08 | 38.68889 | -104.99845 | 15589 ft | 259 kts | 233° |
| 2026-04-25 23:08 | 38.67786 | -105.01636 | 15650 ft | 254 kts | 234° |
| 2026-04-25 23:09 | 38.66720 | -105.03439 | 15740 ft | 255 kts | 240° |
| 2026-04-25 23:09 | 38.66307 | -105.05640 | 15814 ft | 263 kts | 271° |
| 2026-04-25 23:09 | 38.66694 | -105.07943 | 15907 ft | 268 kts | 283° |
| 2026-04-25 23:09 | 38.67248 | -105.10234 | 16100 ft | 271 kts | 284° |
| 2026-04-25 23:10 | 38.67823 | -105.12537 | 16306 ft | 272 kts | 284° |
| 2026-04-25 23:10 | 38.68410 | -105.14858 | 16391 ft | 277 kts | 284° |
| 2026-04-25 23:10 | 38.69008 | -105.17225 | 16397 ft | 282 kts | 284° |
| 2026-04-25 23:10 | 38.69617 | -105.19632 | 16401 ft | 286 kts | 284° |
| 2026-04-25 23:11 | 38.70235 | -105.22071 | 16382 ft | 289 kts | 284° |
| 2026-04-25 23:11 | 38.70857 | -105.24530 | 16382 ft | 291 kts | 284° |
| 2026-04-25 23:11 | 38.71483 | -105.26995 | 16382 ft | 291 kts | 284° |
| 2026-04-25 23:11 | 38.72111 | -105.29468 | 16372 ft | 293 kts | 285° |
| 2026-04-25 23:12 | 38.72737 | -105.31955 | 16369 ft | 294 kts | 284° |
| 2026-04-25 23:12 | 38.73364 | -105.34450 | 16369 ft | 295 kts | 284° |
| 2026-04-25 23:12 | 38.73996 | -105.36956 | 16339 ft | 296 kts | 284° |
| 2026-04-25 23:12 | 38.74630 | -105.39476 | 16340 ft | 297 kts | 284° |
| 2026-04-25 23:13 | 38.75265 | -105.41997 | 16341 ft | 298 kts | 285° |
| 2026-04-25 23:13 | 38.75897 | -105.44521 | 16345 ft | 298 kts | 284° |
| 2026-04-25 23:13 | 38.76531 | -105.47056 | 16342 ft | 299 kts | 284° |
| 2026-04-25 23:13 | 38.77167 | -105.49579 | 16062 ft | 293 kts | 284° |
| 2026-04-25 23:14 | 38.77791 | -105.52020 | 15736 ft | 283 kts | 284° |
| 2026-04-25 23:14 | 38.78407 | -105.54380 | 15439 ft | 276 kts | 285° |
| 2026-04-25 23:14 | 38.78995 | -105.56618 | 15150 ft | 272 kts | 285° |
| 2026-04-25 23:14 | 38.79599 | -105.58901 | 15057 ft | 266 kts | 285° |
| 2026-04-25 23:15 | 38.80171 | -105.61121 | 14551 ft | 259 kts | 284° |
| 2026-04-25 23:15 | 38.80740 | -105.63282 | 14318 ft | 251 kts | 285° |
| 2026-04-25 23:15 | 38.81289 | -105.65342 | 14289 ft | 237 kts | 284° |
| 2026-04-25 23:15 | 38.81813 | -105.67306 | 14282 ft | 230 kts | 285° |
| 2026-04-25 23:16 | 38.82324 | -105.69216 | 14286 ft | 224 kts | 285° |
| 2026-04-25 23:16 | 38.82835 | -105.71087 | 14294 ft | 221 kts | 284° |
| 2026-04-25 23:16 | 38.83351 | -105.72933 | 14289 ft | 219 kts | 284° |
| 2026-04-25 23:16 | 38.83858 | -105.74763 | 14291 ft | 218 kts | 285° |
| 2026-04-25 23:17 | 38.84354 | -105.76604 | 14286 ft | 219 kts | 285° |
| 2026-04-25 23:17 | 38.84843 | -105.78454 | 14269 ft | 219 kts | 285° |
| 2026-04-25 23:17 | 38.85339 | -105.80302 | 14284 ft | 220 kts | 285° |
| 2026-04-25 23:17 | 38.85838 | -105.82179 | 14275 ft | 231 kts | 284° |
| 2026-04-25 23:18 | 38.86384 | -105.84226 | 14289 ft | 251 kts | 285° |
| 2026-04-25 23:18 | 38.86959 | -105.86410 | 14290 ft | 265 kts | 284° |
| 2026-04-25 23:18 | 38.87558 | -105.88704 | 14285 ft | 278 kts | 285° |
| 2026-04-25 23:18 | 38.88188 | -105.91100 | 14287 ft | 288 kts | 285° |
| 2026-04-25 23:19 | 38.88831 | -105.93568 | 14280 ft | 295 kts | 285° |
| 2026-04-25 23:19 | 38.89472 | -105.96088 | 14448 ft | 299 kts | 285° |
| 2026-04-25 23:19 | 38.90074 | -105.98449 | 14453 ft | 254 kts | 285° |
| 2026-04-25 23:19 | 38.90598 | -106.00436 | 14455 ft | 218 kts | 284° |
| 2026-04-25 23:20 | 38.91077 | -106.02189 | 14451 ft | 210 kts | 285° |
| 2026-04-25 23:20 | 38.91594 | -106.04073 | 14474 ft | 235 kts | 285° |
| 2026-04-25 23:20 | 38.92143 | -106.06123 | 14473 ft | 250 kts | 285° |
| 2026-04-25 23:20 | 38.92712 | -106.08302 | 14480 ft | 264 kts | 285° |
| 2026-04-25 23:21 | 38.93300 | -106.10602 | 14479 ft | 278 kts | 285° |
| 2026-04-25 23:21 | 38.93896 | -106.12990 | 14476 ft | 284 kts | 285° |
| 2026-04-25 23:21 | 38.94528 | -106.15382 | 14459 ft | 282 kts | 287° |
| 2026-04-25 23:21 | 38.95247 | -106.17720 | 14451 ft | 282 kts | 289° |
| 2026-04-25 23:22 | 38.95980 | -106.20069 | 14438 ft | 288 kts | 289° |
| 2026-04-25 23:22 | 38.96714 | -106.22387 | 14432 ft | 268 kts | 289° |
| 2026-04-25 23:22 | 38.97432 | -106.24618 | 14414 ft | 277 kts | 289° |
| 2026-04-25 23:23 | 38.99066 | -106.29296 | 14451 ft | 294 kts | 297° |
| 2026-04-25 23:23 | 39.00144 | -106.31494 | 14459 ft | 288 kts | 304° |
| 2026-04-25 23:23 | 39.01583 | -106.33305 | 14511 ft | 289 kts | 314° |
| 2026-04-25 23:23 | 39.03102 | -106.34963 | 14505 ft | 287 kts | 314° |
| 2026-04-25 23:24 | 39.04563 | -106.36739 | 14330 ft | 289 kts | 309° |
| 2026-04-25 23:24 | 39.05800 | -106.38726 | 14312 ft | 282 kts | 296° |
| 2026-04-25 23:24 | 39.06484 | -106.41040 | 14256 ft | 274 kts | 281° |
| 2026-04-25 23:24 | 39.06729 | -106.43446 | 14223 ft | 270 kts | 269° |
| 2026-04-25 23:25 | 39.06687 | -106.45867 | 14175 ft | 268 kts | 266° |
| 2026-04-25 23:25 | 39.06636 | -106.48219 | 14348 ft | 259 kts | 268° |
| 2026-04-25 23:25 | 39.06694 | -106.50515 | 14581 ft | 259 kts | 272° |
| 2026-04-25 23:25 | 39.06810 | -106.52062 | 14635 ft | 265 kts | 274° |
| 2026-04-25 23:26 | 39.07122 | -106.55277 | 14707 ft | 277 kts | 275° |
| 2026-04-25 23:26 | 39.07478 | -106.57781 | 14587 ft | 287 kts | 284° |
| 2026-04-25 23:26 | 39.08353 | -106.60112 | 14602 ft | 290 kts | 298° |
| 2026-04-25 23:26 | 39.09499 | -106.62202 | 14500 ft | 289 kts | 302° |
| 2026-04-25 23:27 | 39.10605 | -106.64382 | 14424 ft | 284 kts | 297° |
| 2026-04-25 23:27 | 39.11604 | -106.66539 | 14430 ft | 276 kts | 296° |
| 2026-04-25 23:27 | 39.12517 | -106.68579 | 14452 ft | 263 kts | 295° |
| 2026-04-25 23:27 | 39.13442 | -106.70582 | 13991 ft | 244 kts | 296° |
| 2026-04-25 23:28 | 39.14267 | -106.72334 | 13286 ft | 221 kts | 295° |
| 2026-04-25 23:28 | 39.15028 | -106.74022 | 12587 ft | 223 kts | 295° |
| 2026-04-25 23:28 | 39.15948 | -106.75760 | 12079 ft | 239 kts | 306° |
| 2026-04-25 23:28 | 39.17169 | -106.77200 | 11784 ft | 245 kts | 318° |
| 2026-04-25 23:29 | 39.18608 | -106.78363 | 11622 ft | 243 kts | 325° |
| 2026-04-25 23:29 | 39.20130 | -106.79297 | 11424 ft | 244 kts | 333° |
| 2026-04-25 23:29 | 39.21791 | -106.79835 | 10909 ft | 246 kts | 344° |
| 2026-04-25 23:29 | 39.23358 | -106.80250 | 10485 ft | 217 kts | 335° |
| 2026-04-25 23:30 | 39.24541 | -106.81358 | 9899 ft | 210 kts | 309° |
| 2026-04-25 23:30 | 39.25413 | -106.82660 | 9693 ft | 174 kts | 306° |
| 2026-04-25 23:30 | 39.26201 | -106.83798 | 9503 ft | 174 kts | 305° |
| 2026-04-25 23:30 | 39.27027 | -106.84991 | 9371 ft | 181 kts | 307° |
| 2026-04-25 23:31 | 39.27594 | -106.85814 | 9314 ft | 182 kts | 306° |
| 2026-04-25 23:31 | 39.28396 | -106.87542 | 9028 ft | 154 kts | 277° |
| 2026-04-25 23:31 | 39.28060 | -106.88678 | 8555 ft | 137 kts | 214° |
| 2026-04-25 23:31 | 39.27214 | -106.88959 | 8394 ft | 111 kts | 185° |
| 2026-04-25 23:32 | 39.26470 | -106.88834 | 8139 ft | 111 kts | 169° |
| 2026-04-25 23:32 | 39.25949 | -106.88542 | 7997 ft | 128 kts | 167° |
| 2026-04-25 23:32 | 39.25069 | -106.88188 | 7882 ft | 151 kts | 163° |
| 2026-04-25 23:32 | 39.24071 | -106.87668 | 7743 ft | 144 kts | 158° |
| 2026-04-25 23:33 | 39.23200 | -106.87310 | 7717 ft | 126 kts | 152° |
| 2026-04-25 23:33 | 39.22481 | -106.86959 | 7739 ft | 96 kts | 163° |
| 2026-04-25 23:33 | 39.22100 | -106.86776 | 7766 ft | 81 kts | 165° |
| 2026-04-25 23:34 | 39.21891 | -106.86576 | 7785 ft | 0 kts | 31° |